UAL1055 KEWR-EDDF
Flight info
| Callsign | UAL1055 |
|---|---|
| Flight time | N/A |
| Altitude | 35000 |
| Route | GREKI DCT JUDDS DCT MARTN DCT CBIRD DCT TAFFY N809A IRLOK/M084F360 DCT 5630N05000W 5730N04000W 5730N03000W 5630N02000W DCT ETARI DCT MOGLO/N0482F370 DCT ULTAG DCT BOFUM Q37 MALUD UL975 WAL M16 DOLAS DCT NAVPI DCT NOLRU DCT DIXAT DIXAT1D |
| Aircraft | B77W/H-SDE1E2E3FGHIJ2J3J4J5M1RWXY/LB1D1 |
Departure
| Time | 2026-04-30 11:31 |
|---|---|
| Airport | Newark Liberty International Airport (KEWR) |
Arrival
| Time | N/A |
|---|---|
| Airport | Frankfurt Main Airport (EDDF) |
| Time | Latitude | Longitude | Altitude | Speed | Heading |
|---|---|---|---|---|---|
| 2026-04-30 11:15 | 40.69879 | -74.17789 | 27 ft | 0 kts | 270° |
| 2026-04-30 11:25 | 40.69879 | -74.17784 | 27 ft | 3 kts | 271° |
| 2026-04-30 11:25 | 40.69869 | -74.17717 | 27 ft | 4 kts | 301° |
| 2026-04-30 11:26 | 40.69836 | -74.17683 | 27 ft | 4 kts | 4° |
| 2026-04-30 11:26 | 40.69818 | -74.17690 | 27 ft | 3 kts | 40° |
| 2026-04-30 11:26 | 40.69827 | -74.17680 | 27 ft | 4 kts | 40° |
| 2026-04-30 11:27 | 40.69845 | -74.17661 | 27 ft | 1 kts | 40° |
| 2026-04-30 11:28 | 40.69878 | -74.17619 | 27 ft | 18 kts | 51° |
| 2026-04-30 11:29 | 40.69967 | -74.17472 | 27 ft | 22 kts | 45° |
| 2026-04-30 11:29 | 40.70037 | -74.17300 | 27 ft | 22 kts | 88° |
| 2026-04-30 11:29 | 40.70009 | -74.16880 | 27 ft | 24 kts | 95° |
| 2026-04-30 11:30 | 40.69973 | -74.16456 | 29 ft | 16 kts | 124° |
| 2026-04-30 11:30 | 40.69913 | -74.16437 | 24 ft | 6 kts | 194° |
| 2026-04-30 11:30 | 40.69592 | -74.16647 | 28 ft | 101 kts | 206° |
| 2026-04-30 11:31 | 40.68669 | -74.17251 | 60 ft | 189 kts | 196° |
| 2026-04-30 11:31 | 40.67396 | -74.17798 | 1075 ft | 190 kts | 195° |
| 2026-04-30 11:31 | 40.66155 | -74.18630 | 1703 ft | 214 kts | 223° |
| 2026-04-30 11:31 | 40.65365 | -74.20395 | 1950 ft | 237 kts | 258° |
| 2026-04-30 11:32 | 40.65357 | -74.22592 | 2524 ft | 248 kts | 287° |
| 2026-04-30 11:32 | 40.66188 | -74.24624 | 3051 ft | 261 kts | 316° |
| 2026-04-30 11:32 | 40.67612 | -74.26146 | 3680 ft | 268 kts | 326° |
| 2026-04-30 11:33 | 40.71042 | -74.28155 | 5011 ft | 282 kts | 1° |
| 2026-04-30 11:33 | 40.73007 | -74.28001 | 5725 ft | 286 kts | 9° |
| 2026-04-30 11:33 | 40.74918 | -74.27185 | 6335 ft | 294 kts | 33° |
| 2026-04-30 11:33 | 40.76497 | -74.25448 | 7112 ft | 296 kts | 44° |
| 2026-04-30 11:34 | 40.77993 | -74.23531 | 7888 ft | 302 kts | 44° |
| 2026-04-30 11:34 | 40.79496 | -74.21583 | 8719 ft | 305 kts | 43° |
| 2026-04-30 11:34 | 40.81019 | -74.19601 | 9510 ft | 309 kts | 43° |
| 2026-04-30 11:34 | 40.82541 | -74.17614 | 10236 ft | 316 kts | 43° |
| 2026-04-30 11:35 | 40.84174 | -74.15482 | 10585 ft | 339 kts | 43° |
| 2026-04-30 11:35 | 40.85894 | -74.13241 | 10796 ft | 364 kts | 44° |
| 2026-04-30 11:35 | 40.87764 | -74.10807 | 11006 ft | 389 kts | 43° |
| 2026-04-30 11:35 | 40.89726 | -74.08252 | 11594 ft | 401 kts | 44° |
| 2026-04-30 11:36 | 40.91734 | -74.05634 | 12348 ft | 409 kts | 44° |
| 2026-04-30 11:36 | 40.93769 | -74.02981 | 13159 ft | 414 kts | 44° |
| 2026-04-30 11:36 | 40.95837 | -74.00283 | 13949 ft | 419 kts | 44° |
| 2026-04-30 11:36 | 40.97929 | -73.97549 | 14714 ft | 425 kts | 44° |
| 2026-04-30 11:37 | 41.00040 | -73.94791 | 15498 ft | 429 kts | 44° |
| 2026-04-30 11:37 | 41.02177 | -73.91997 | 16216 ft | 435 kts | 44° |
| 2026-04-30 11:37 | 41.04340 | -73.89169 | 16920 ft | 440 kts | 44° |
| 2026-04-30 11:37 | 41.06532 | -73.86298 | 17632 ft | 445 kts | 44° |
| 2026-04-30 11:38 | 41.08751 | -73.83385 | 18317 ft | 450 kts | 44° |
| 2026-04-30 11:38 | 41.10985 | -73.80448 | 19008 ft | 455 kts | 44° |
| 2026-04-30 11:38 | 41.13245 | -73.77476 | 19706 ft | 458 kts | 44° |
| 2026-04-30 11:38 | 41.15520 | -73.74484 | 20367 ft | 462 kts | 44° |